sensor_id;sensor_type;location;lat;lon;timestamp;P1;durP1;ratioP1;P2;durP2;ratioP2
10479;SDS011;12789;42.610;23.040;2022-10-13T00:01:53;28.87;;;19.07;;
10479;SDS011;12789;42.610;23.040;2022-10-13T00:04:20;26.43;;;18.07;;
10479;SDS011;12789;42.610;23.040;2022-10-13T00:06:47;27.70;;;17.77;;
10479;SDS011;12789;42.610;23.040;2022-10-13T00:09:14;23.07;;;17.37;;
10479;SDS011;12789;42.610;23.040;2022-10-13T00:11:42;22.83;;;17.13;;
10479;SDS011;12789;42.610;23.040;2022-10-13T00:14:09;19.53;;;15.77;;
10479;SDS011;12789;42.610;23.040;2022-10-13T00:16:36;22.77;;;15.83;;
10479;SDS011;12789;42.610;23.040;2022-10-13T00:19:03;19.53;;;14.97;;
10479;SDS011;12789;42.610;23.040;2022-10-13T00:21:30;26.90;;;16.57;;
10479;SDS011;12789;42.610;23.040;2022-10-13T00:23:58;20.57;;;15.90;;
10479;SDS011;12789;42.610;23.040;2022-10-13T00:26:25;21.17;;;15.83;;
10479;SDS011;12789;42.610;23.040;2022-10-13T00:28:54;21.37;;;16.20;;
10479;SDS011;12789;42.610;23.040;2022-10-13T00:31:22;20.53;;;16.00;;
10479;SDS011;12789;42.610;23.040;2022-10-13T00:33:50;22.90;;;16.47;;
10479;SDS011;12789;42.610;23.040;2022-10-13T00:36:18;19.70;;;15.57;;
10479;SDS011;12789;42.610;23.040;2022-10-13T00:38:45;23.30;;;15.70;;
10479;SDS011;12789;42.610;23.040;2022-10-13T00:41:12;26.70;;;14.90;;
10479;SDS011;12789;42.610;23.040;2022-10-13T00:46:30;27.37;;;16.27;;
10479;SDS011;12789;42.610;23.040;2022-10-13T00:48:59;22.03;;;15.33;;
10479;SDS011;12789;42.610;23.040;2022-10-13T00:51:29;23.97;;;17.07;;
10479;SDS011;12789;42.610;23.040;2022-10-13T00:53:59;22.93;;;16.30;;
10479;SDS011;12789;42.610;23.040;2022-10-13T00:56:27;22.70;;;15.57;;
10479;SDS011;12789;42.610;23.040;2022-10-13T00:58:55;24.30;;;17.43;;
10479;SDS011;12789;42.610;23.040;2022-10-13T01:01:24;25.67;;;17.93;;
10479;SDS011;12789;42.610;23.040;2022-10-13T01:03:51;27.83;;;17.70;;
10479;SDS011;12789;42.610;23.040;2022-10-13T01:06:18;24.00;;;16.43;;
10479;SDS011;12789;42.610;23.040;2022-10-13T01:08:45;21.53;;;15.63;;
10479;SDS011;12789;42.610;23.040;2022-10-13T01:11:19;21.07;;;15.87;;
10479;SDS011;12789;42.610;23.040;2022-10-13T01:13:58;18.67;;;15.30;;
10479;SDS011;12789;42.610;23.040;2022-10-13T01:16:35;18.57;;;13.70;;
10479;SDS011;12789;42.610;23.040;2022-10-13T01:19:13;16.40;;;13.93;;
10479;SDS011;12789;42.610;23.040;2022-10-13T01:21:51;15.47;;;13.07;;
10479;SDS011;12789;42.610;23.040;2022-10-13T01:27:17;17.30;;;13.07;;
10479;SDS011;12789;42.610;23.040;2022-10-13T01:30:11;14.10;;;12.60;;
10479;SDS011;12789;42.610;23.040;2022-10-13T01:32:49;15.93;;;12.83;;
10479;SDS011;12789;42.610;23.040;2022-10-13T01:35:25;17.20;;;12.93;;
10479;SDS011;12789;42.610;23.040;2022-10-13T01:38:00;16.57;;;13.77;;
10479;SDS011;12789;42.610;23.040;2022-10-13T01:40:33;18.80;;;13.83;;
10479;SDS011;12789;42.610;23.040;2022-10-13T01:43:05;17.57;;;14.17;;
10479;SDS011;12789;42.610;23.040;2022-10-13T01:45:37;21.73;;;15.27;;
10479;SDS011;12789;42.610;23.040;2022-10-13T01:48:08;22.73;;;15.97;;
10479;SDS011;12789;42.610;23.040;2022-10-13T01:50:36;19.77;;;15.03;;
10479;SDS011;12789;42.610;23.040;2022-10-13T01:53:04;21.33;;;14.83;;
10479;SDS011;12789;42.610;23.040;2022-10-13T01:55:32;19.23;;;13.77;;
10479;SDS011;12789;42.610;23.040;2022-10-13T01:57:59;20.23;;;15.00;;
10479;SDS011;12789;42.610;23.040;2022-10-13T02:00:26;18.57;;;15.83;;
10479;SDS011;12789;42.610;23.040;2022-10-13T02:03:08;19.77;;;14.33;;
10479;SDS011;12789;42.610;23.040;2022-10-13T02:05:43;17.80;;;14.13;;
10479;SDS011;12789;42.610;23.040;2022-10-13T02:08:16;18.07;;;14.03;;
10479;SDS011;12789;42.610;23.040;2022-10-13T02:10:49;18.60;;;14.63;;
10479;SDS011;12789;42.610;23.040;2022-10-13T02:13:20;18.87;;;13.93;;
10479;SDS011;12789;42.610;23.040;2022-10-13T02:15:50;17.73;;;13.53;;
10479;SDS011;12789;42.610;23.040;2022-10-13T02:18:24;18.87;;;14.43;;
10479;SDS011;12789;42.610;23.040;2022-10-13T02:20:54;18.33;;;13.67;;
10479;SDS011;12789;42.610;23.040;2022-10-13T02:23:21;19.53;;;14.00;;
10479;SDS011;12789;42.610;23.040;2022-10-13T02:25:49;23.03;;;14.23;;
10479;SDS011;12789;42.610;23.040;2022-10-13T02:28:16;21.93;;;15.27;;
10479;SDS011;12789;42.610;23.040;2022-10-13T02:30:44;23.00;;;16.07;;
10479;SDS011;12789;42.610;23.040;2022-10-13T02:33:12;22.90;;;16.23;;
10479;SDS011;12789;42.610;23.040;2022-10-13T02:35:41;23.57;;;15.33;;
10479;SDS011;12789;42.610;23.040;2022-10-13T02:38:09;23.00;;;16.80;;
10479;SDS011;12789;42.610;23.040;2022-10-13T02:40:36;22.87;;;16.03;;
10479;SDS011;12789;42.610;23.040;2022-10-13T02:43:03;21.27;;;14.93;;
10479;SDS011;12789;42.610;23.040;2022-10-13T02:45:31;19.83;;;15.33;;
10479;SDS011;12789;42.610;23.040;2022-10-13T02:47:58;25.03;;;15.47;;
10479;SDS011;12789;42.610;23.040;2022-10-13T02:50:24;21.63;;;15.53;;
10479;SDS011;12789;42.610;23.040;2022-10-13T02:52:53;26.47;;;16.10;;
10479;SDS011;12789;42.610;23.040;2022-10-13T02:55:20;22.67;;;16.00;;
10479;SDS011;12789;42.610;23.040;2022-10-13T02:57:47;26.37;;;16.17;;
10479;SDS011;12789;42.610;23.040;2022-10-13T03:00:14;21.20;;;15.27;;
10479;SDS011;12789;42.610;23.040;2022-10-13T03:02:41;20.00;;;15.03;;
10479;SDS011;12789;42.610;23.040;2022-10-13T03:05:09;18.67;;;15.00;;
10479;SDS011;12789;42.610;23.040;2022-10-13T03:07:36;18.70;;;14.30;;
10479;SDS011;12789;42.610;23.040;2022-10-13T03:10:05;19.43;;;14.63;;
10479;SDS011;12789;42.610;23.040;2022-10-13T03:12:32;19.77;;;14.00;;
10479;SDS011;12789;42.610;23.040;2022-10-13T03:14:59;17.90;;;13.93;;
10479;SDS011;12789;42.610;23.040;2022-10-13T03:17:26;21.87;;;13.77;;
10479;SDS011;12789;42.610;23.040;2022-10-13T03:19:53;18.87;;;13.83;;
10479;SDS011;12789;42.610;23.040;2022-10-13T03:22:19;20.43;;;13.50;;
10479;SDS011;12789;42.610;23.040;2022-10-13T03:24:47;19.57;;;14.07;;
10479;SDS011;12789;42.610;23.040;2022-10-13T03:27:15;20.00;;;13.43;;
10479;SDS011;12789;42.610;23.040;2022-10-13T03:29:42;23.10;;;13.83;;
10479;SDS011;12789;42.610;23.040;2022-10-13T03:32:09;19.97;;;14.07;;
10479;SDS011;12789;42.610;23.040;2022-10-13T03:34:35;19.73;;;13.50;;
10479;SDS011;12789;42.610;23.040;2022-10-13T03:37:02;16.70;;;13.23;;
10479;SDS011;12789;42.610;23.040;2022-10-13T03:39:29;19.20;;;14.07;;
10479;SDS011;12789;42.610;23.040;2022-10-13T03:41:56;18.63;;;13.63;;
10479;SDS011;12789;42.610;23.040;2022-10-13T03:44:24;18.30;;;12.93;;
10479;SDS011;12789;42.610;23.040;2022-10-13T03:46:52;16.40;;;14.13;;
10479;SDS011;12789;42.610;23.040;2022-10-13T03:49:19;16.93;;;12.27;;
10479;SDS011;12789;42.610;23.040;2022-10-13T03:51:46;25.43;;;14.47;;
10479;SDS011;12789;42.610;23.040;2022-10-13T03:54:13;23.60;;;14.50;;
10479;SDS011;12789;42.610;23.040;2022-10-13T03:56:40;21.50;;;14.93;;
10479;SDS011;12789;42.610;23.040;2022-10-13T03:59:09;17.77;;;12.83;;
10479;SDS011;12789;42.610;23.040;2022-10-13T04:01:39;21.90;;;13.70;;
10479;SDS011;12789;42.610;23.040;2022-10-13T04:04:05;20.67;;;13.73;;
10479;SDS011;12789;42.610;23.040;2022-10-13T04:06:33;19.47;;;12.97;;
10479;SDS011;12789;42.610;23.040;2022-10-13T04:09:00;59.10;;;40.67;;
10479;SDS011;12789;42.610;23.040;2022-10-13T04:11:28;27.17;;;17.00;;
10479;SDS011;12789;42.610;23.040;2022-10-13T04:13:55;22.07;;;13.53;;
10479;SDS011;12789;42.610;23.040;2022-10-13T04:16:23;20.20;;;13.50;;
10479;SDS011;12789;42.610;23.040;2022-10-13T04:18:54;20.10;;;14.47;;
10479;SDS011;12789;42.610;23.040;2022-10-13T04:21:22;22.53;;;15.17;;
10479;SDS011;12789;42.610;23.040;2022-10-13T04:23:50;22.10;;;15.27;;
10479;SDS011;12789;42.610;23.040;2022-10-13T04:26:17;22.87;;;15.23;;
10479;SDS011;12789;42.610;23.040;2022-10-13T04:28:47;18.00;;;13.73;;
10479;SDS011;12789;42.610;23.040;2022-10-13T04:31:15;18.33;;;13.17;;
10479;SDS011;12789;42.610;23.040;2022-10-13T04:33:42;19.50;;;13.67;;
10479;SDS011;12789;42.610;23.040;2022-10-13T04:36:11;19.73;;;13.57;;
10479;SDS011;12789;42.610;23.040;2022-10-13T04:38:39;19.93;;;13.53;;
10479;SDS011;12789;42.610;23.040;2022-10-13T04:41:08;21.40;;;14.80;;
10479;SDS011;12789;42.610;23.040;2022-10-13T04:43:35;23.20;;;15.33;;
10479;SDS011;12789;42.610;23.040;2022-10-13T04:46:03;27.37;;;16.93;;
10479;SDS011;12789;42.610;23.040;2022-10-13T04:48:31;27.83;;;18.27;;
10479;SDS011;12789;42.610;23.040;2022-10-13T04:50:59;34.33;;;19.90;;
10479;SDS011;12789;42.610;23.040;2022-10-13T04:53:28;33.10;;;21.77;;
10479;SDS011;12789;42.610;23.040;2022-10-13T04:55:55;43.37;;;23.40;;
10479;SDS011;12789;42.610;23.040;2022-10-13T04:58:25;41.47;;;25.57;;
10479;SDS011;12789;42.610;23.040;2022-10-13T05:00:52;44.83;;;26.67;;
10479;SDS011;12789;42.610;23.040;2022-10-13T05:03:19;37.63;;;26.37;;
10479;SDS011;12789;42.610;23.040;2022-10-13T05:05:46;38.70;;;26.00;;
10479;SDS011;12789;42.610;23.040;2022-10-13T05:08:13;41.57;;;26.00;;
10479;SDS011;12789;42.610;23.040;2022-10-13T05:10:41;42.90;;;26.17;;
10479;SDS011;12789;42.610;23.040;2022-10-13T05:13:08;45.63;;;26.73;;
10479;SDS011;12789;42.610;23.040;2022-10-13T05:15:37;54.80;;;27.60;;
10479;SDS011;12789;42.610;23.040;2022-10-13T05:18:04;49.57;;;27.20;;
10479;SDS011;12789;42.610;23.040;2022-10-13T05:20:31;48.97;;;26.13;;
10479;SDS011;12789;42.610;23.040;2022-10-13T05:22:58;44.47;;;25.93;;
10479;SDS011;12789;42.610;23.040;2022-10-13T05:25:25;43.43;;;25.00;;
10479;SDS011;12789;42.610;23.040;2022-10-13T05:27:53;42.33;;;25.40;;
10479;SDS011;12789;42.610;23.040;2022-10-13T05:30:20;50.50;;;26.13;;
10479;SDS011;12789;42.610;23.040;2022-10-13T05:32:47;48.27;;;24.87;;
10479;SDS011;12789;42.610;23.040;2022-10-13T05:35:13;44.83;;;24.37;;
10479;SDS011;12789;42.610;23.040;2022-10-13T05:37:40;42.27;;;24.70;;
10479;SDS011;12789;42.610;23.040;2022-10-13T05:40:07;41.53;;;24.30;;
10479;SDS011;12789;42.610;23.040;2022-10-13T05:42:35;45.50;;;23.60;;
10479;SDS011;12789;42.610;23.040;2022-10-13T05:45:04;47.00;;;23.97;;
10479;SDS011;12789;42.610;23.040;2022-10-13T05:47:34;44.20;;;24.20;;
10479;SDS011;12789;42.610;23.040;2022-10-13T05:50:02;43.97;;;23.97;;
10479;SDS011;12789;42.610;23.040;2022-10-13T05:52:30;42.40;;;24.23;;
10479;SDS011;12789;42.610;23.040;2022-10-13T05:54:59;41.97;;;24.90;;
10479;SDS011;12789;42.610;23.040;2022-10-13T05:57:29;39.90;;;23.70;;
10479;SDS011;12789;42.610;23.040;2022-10-13T05:59:58;46.70;;;25.90;;
10479;SDS011;12789;42.610;23.040;2022-10-13T06:02:31;39.87;;;25.40;;
10479;SDS011;12789;42.610;23.040;2022-10-13T06:05:02;45.10;;;27.20;;
10479;SDS011;12789;42.610;23.040;2022-10-13T06:07:32;47.13;;;26.97;;
10479;SDS011;12789;42.610;23.040;2022-10-13T06:09:59;48.07;;;27.03;;
10479;SDS011;12789;42.610;23.040;2022-10-13T06:12:27;43.27;;;24.43;;
10479;SDS011;12789;42.610;23.040;2022-10-13T06:14:54;45.17;;;22.37;;
10479;SDS011;12789;42.610;23.040;2022-10-13T06:17:21;37.00;;;21.00;;
10479;SDS011;12789;42.610;23.040;2022-10-13T06:19:49;45.07;;;20.43;;
10479;SDS011;12789;42.610;23.040;2022-10-13T06:22:16;42.50;;;20.07;;
10479;SDS011;12789;42.610;23.040;2022-10-13T06:24:43;49.67;;;20.17;;
10479;SDS011;12789;42.610;23.040;2022-10-13T06:27:10;47.40;;;22.57;;
10479;SDS011;12789;42.610;23.040;2022-10-13T06:29:37;39.73;;;21.60;;
10479;SDS011;12789;42.610;23.040;2022-10-13T06:32:05;49.43;;;22.50;;
10479;SDS011;12789;42.610;23.040;2022-10-13T06:34:32;55.60;;;21.90;;
10479;SDS011;12789;42.610;23.040;2022-10-13T06:37:00;49.17;;;22.17;;
10479;SDS011;12789;42.610;23.040;2022-10-13T06:39:27;44.37;;;20.17;;
10479;SDS011;12789;42.610;23.040;2022-10-13T06:41:54;41.47;;;20.87;;
10479;SDS011;12789;42.610;23.040;2022-10-13T06:44:21;45.10;;;21.40;;
10479;SDS011;12789;42.610;23.040;2022-10-13T06:46:48;52.33;;;21.50;;
10479;SDS011;12789;42.610;23.040;2022-10-13T06:49:15;49.33;;;21.40;;
10479;SDS011;12789;42.610;23.040;2022-10-13T06:51:42;54.20;;;22.40;;
10479;SDS011;12789;42.610;23.040;2022-10-13T06:54:10;52.83;;;22.00;;
10479;SDS011;12789;42.610;23.040;2022-10-13T06:56:37;50.33;;;21.67;;
10479;SDS011;12789;42.610;23.040;2022-10-13T06:59:04;53.10;;;22.37;;
10479;SDS011;12789;42.610;23.040;2022-10-13T07:01:31;57.27;;;23.67;;
10479;SDS011;12789;42.610;23.040;2022-10-13T07:03:58;57.47;;;22.77;;
10479;SDS011;12789;42.610;23.040;2022-10-13T07:06:24;46.87;;;22.93;;
10479;SDS011;12789;42.610;23.040;2022-10-13T07:08:51;48.43;;;23.00;;
10479;SDS011;12789;42.610;23.040;2022-10-13T07:11:20;55.80;;;22.83;;
10479;SDS011;12789;42.610;23.040;2022-10-13T07:13:47;56.30;;;22.83;;
10479;SDS011;12789;42.610;23.040;2022-10-13T07:16:14;46.20;;;22.63;;
10479;SDS011;12789;42.610;23.040;2022-10-13T07:18:41;46.07;;;23.37;;
10479;SDS011;12789;42.610;23.040;2022-10-13T07:21:08;47.57;;;23.10;;
10479;SDS011;12789;42.610;23.040;2022-10-13T07:23:35;44.23;;;22.60;;
10479;SDS011;12789;42.610;23.040;2022-10-13T07:26:05;45.87;;;22.97;;
10479;SDS011;12789;42.610;23.040;2022-10-13T07:28:34;49.07;;;21.83;;
10479;SDS011;12789;42.610;23.040;2022-10-13T07:31:05;157.50;;;98.43;;
10479;SDS011;12789;42.610;23.040;2022-10-13T07:33:35;29.67;;;18.53;;
10479;SDS011;12789;42.610;23.040;2022-10-13T07:36:02;33.80;;;17.20;;
10479;SDS011;12789;42.610;23.040;2022-10-13T07:38:29;25.47;;;15.23;;
10479;SDS011;12789;42.610;23.040;2022-10-13T07:40:58;25.17;;;15.13;;
10479;SDS011;12789;42.610;23.040;2022-10-13T07:43:25;31.50;;;16.40;;
10479;SDS011;12789;42.610;23.040;2022-10-13T07:45:54;30.83;;;14.83;;
10479;SDS011;12789;42.610;23.040;2022-10-13T07:48:23;31.23;;;14.40;;
10479;SDS011;12789;42.610;23.040;2022-10-13T07:50:50;29.70;;;15.57;;
10479;SDS011;12789;42.610;23.040;2022-10-13T07:53:17;30.43;;;13.40;;
10479;SDS011;12789;42.610;23.040;2022-10-13T07:55:44;33.53;;;13.93;;
10479;SDS011;12789;42.610;23.040;2022-10-13T07:58:11;28.03;;;14.57;;
10479;SDS011;12789;42.610;23.040;2022-10-13T08:00:38;31.90;;;14.43;;
10479;SDS011;12789;42.610;23.040;2022-10-13T08:03:06;32.75;;;16.50;;
10479;SDS011;12789;42.610;23.040;2022-10-13T08:05:35;29.80;;;16.08;;
10479;SDS011;12789;42.610;23.040;2022-10-13T08:08:02;42.85;;;16.38;;
10479;SDS011;12789;42.610;23.040;2022-10-13T08:10:29;32.55;;;15.23;;
10479;SDS011;12789;42.610;23.040;2022-10-13T08:12:56;35.80;;;16.23;;
10479;SDS011;12789;42.610;23.040;2022-10-13T08:15:23;36.88;;;16.45;;
10479;SDS011;12789;42.610;23.040;2022-10-13T08:17:50;98.35;;;55.65;;
10479;SDS011;12789;42.610;23.040;2022-10-13T08:20:18;35.95;;;16.85;;
10479;SDS011;12789;42.610;23.040;2022-10-13T08:22:45;49.92;;;26.17;;
10479;SDS011;12789;42.610;23.040;2022-10-13T08:25:12;40.63;;;17.27;;
10479;SDS011;12789;42.610;23.040;2022-10-13T08:27:40;41.88;;;17.65;;
10479;SDS011;12789;42.610;23.040;2022-10-13T08:30:08;37.50;;;21.05;;
10479;SDS011;12789;42.610;23.040;2022-10-13T08:32:35;39.88;;;18.45;;
10479;SDS011;12789;42.610;23.040;2022-10-13T08:35:02;27.80;;;12.98;;
10479;SDS011;12789;42.610;23.040;2022-10-13T08:37:31;36.83;;;14.23;;
10479;SDS011;12789;42.610;23.040;2022-10-13T08:39:59;31.52;;;15.48;;
10479;SDS011;12789;42.610;23.040;2022-10-13T08:42:26;37.85;;;17.13;;
10479;SDS011;12789;42.610;23.040;2022-10-13T08:44:54;32.33;;;14.43;;
10479;SDS011;12789;42.610;23.040;2022-10-13T08:47:35;28.65;;;13.32;;
10479;SDS011;12789;42.610;23.040;2022-10-13T08:50:10;30.60;;;12.57;;
10479;SDS011;12789;42.610;23.040;2022-10-13T08:52:44;21.60;;;11.95;;
10479;SDS011;12789;42.610;23.040;2022-10-13T08:55:20;27.73;;;14.32;;
10479;SDS011;12789;42.610;23.040;2022-10-13T08:57:50;24.40;;;13.15;;
10479;SDS011;12789;42.610;23.040;2022-10-13T09:00:17;25.30;;;11.93;;
10479;SDS011;12789;42.610;23.040;2022-10-13T09:02:44;25.38;;;13.18;;
10479;SDS011;12789;42.610;23.040;2022-10-13T09:05:13;25.17;;;10.98;;
10479;SDS011;12789;42.610;23.040;2022-10-13T09:07:48;22.35;;;11.75;;
10479;SDS011;12789;42.610;23.040;2022-10-13T09:10:17;31.67;;;12.32;;
10479;SDS011;12789;42.610;23.040;2022-10-13T09:12:44;20.90;;;11.02;;
10479;SDS011;12789;42.610;23.040;2022-10-13T09:15:11;23.40;;;11.55;;
10479;SDS011;12789;42.610;23.040;2022-10-13T09:17:39;18.00;;;9.30;;
10479;SDS011;12789;42.610;23.040;2022-10-13T09:20:13;13.48;;;8.60;;
10479;SDS011;12789;42.610;23.040;2022-10-13T09:22:59;15.63;;;7.70;;
10479;SDS011;12789;42.610;23.040;2022-10-13T09:25:27;11.02;;;8.30;;
10479;SDS011;12789;42.610;23.040;2022-10-13T09:27:55;13.90;;;8.00;;
10479;SDS011;12789;42.610;23.040;2022-10-13T09:30:34;12.88;;;7.57;;
10479;SDS011;12789;42.610;23.040;2022-10-13T09:33:16;10.70;;;7.13;;
10479;SDS011;12789;42.610;23.040;2022-10-13T09:35:47;12.90;;;7.07;;
10479;SDS011;12789;42.610;23.040;2022-10-13T09:38:17;14.35;;;7.97;;
10479;SDS011;12789;42.610;23.040;2022-10-13T09:40:54;14.52;;;7.25;;
10479;SDS011;12789;42.610;23.040;2022-10-13T09:43:26;17.80;;;11.02;;
10479;SDS011;12789;42.610;23.040;2022-10-13T09:45:56;8.40;;;6.25;;
10479;SDS011;12789;42.610;23.040;2022-10-13T09:48:25;10.27;;;6.63;;
10479;SDS011;12789;42.610;23.040;2022-10-13T09:50:54;11.70;;;8.25;;
10479;SDS011;12789;42.610;23.040;2022-10-13T09:53:25;12.63;;;7.00;;
10479;SDS011;12789;42.610;23.040;2022-10-13T09:56:11;10.48;;;6.78;;
10479;SDS011;12789;42.610;23.040;2022-10-13T09:58:45;6.82;;;6.13;;
10479;SDS011;12789;42.610;23.040;2022-10-13T10:01:21;8.88;;;5.75;;
10479;SDS011;12789;42.610;23.040;2022-10-13T10:03:51;6.75;;;5.65;;
10479;SDS011;12789;42.610;23.040;2022-10-13T10:06:20;9.52;;;5.70;;
10479;SDS011;12789;42.610;23.040;2022-10-13T10:08:51;9.10;;;5.72;;
10479;SDS011;12789;42.610;23.040;2022-10-13T10:11:25;9.07;;;5.60;;
10479;SDS011;12789;42.610;23.040;2022-10-13T10:13:55;11.48;;;6.30;;
10479;SDS011;12789;42.610;23.040;2022-10-13T10:16:23;7.72;;;6.35;;
10479;SDS011;12789;42.610;23.040;2022-10-13T10:18:58;9.52;;;6.18;;
10479;SDS011;12789;42.610;23.040;2022-10-13T10:21:30;10.25;;;6.60;;
10479;SDS011;12789;42.610;23.040;2022-10-13T10:24:06;11.88;;;6.22;;
10479;SDS011;12789;42.610;23.040;2022-10-13T10:26:43;10.02;;;7.22;;
10479;SDS011;12789;42.610;23.040;2022-10-13T10:29:25;13.15;;;6.50;;
10479;SDS011;12789;42.610;23.040;2022-10-13T10:32:14;12.60;;;6.40;;
10479;SDS011;12789;42.610;23.040;2022-10-13T10:34:52;9.85;;;6.75;;
10479;SDS011;12789;42.610;23.040;2022-10-13T10:37:30;9.52;;;6.65;;
10479;SDS011;12789;42.610;23.040;2022-10-13T10:40:13;11.65;;;6.82;;
10479;SDS011;12789;42.610;23.040;2022-10-13T10:42:51;8.90;;;6.32;;
10479;SDS011;12789;42.610;23.040;2022-10-13T10:45:39;11.30;;;6.90;;
10479;SDS011;12789;42.610;23.040;2022-10-13T10:48:07;8.18;;;6.03;;
10479;SDS011;12789;42.610;23.040;2022-10-13T10:50:42;14.48;;;6.90;;
10479;SDS011;12789;42.610;23.040;2022-10-13T10:53:12;10.98;;;7.28;;
10479;SDS011;12789;42.610;23.040;2022-10-13T10:55:50;13.70;;;6.75;;
10479;SDS011;12789;42.610;23.040;2022-10-13T10:58:22;8.13;;;6.55;;
10479;SDS011;12789;42.610;23.040;2022-10-13T11:01:04;9.75;;;7.22;;
10479;SDS011;12789;42.610;23.040;2022-10-13T11:03:36;12.90;;;8.35;;
10479;SDS011;12789;42.610;23.040;2022-10-13T11:06:20;10.88;;;7.28;;
10479;SDS011;12789;42.610;23.040;2022-10-13T11:08:50;10.73;;;7.90;;
10479;SDS011;12789;42.610;23.040;2022-10-13T11:11:30;14.77;;;8.25;;
10479;SDS011;12789;42.610;23.040;2022-10-13T11:13:59;17.13;;;8.13;;
10479;SDS011;12789;42.610;23.040;2022-10-13T11:16:57;10.65;;;7.70;;
10479;SDS011;12789;42.610;23.040;2022-10-13T11:19:29;9.80;;;7.72;;
10479;SDS011;12789;42.610;23.040;2022-10-13T11:24:54;10.10;;;7.55;;
10479;SDS011;12789;42.610;23.040;2022-10-13T11:27:25;12.25;;;7.85;;
10479;SDS011;12789;42.610;23.040;2022-10-13T11:30:03;12.82;;;8.10;;
10479;SDS011;12789;42.610;23.040;2022-10-13T11:32:45;9.98;;;8.02;;
10479;SDS011;12789;42.610;23.040;2022-10-13T11:35:22;12.52;;;7.82;;
10479;SDS011;12789;42.610;23.040;2022-10-13T11:40:56;9.75;;;7.55;;
10479;SDS011;12789;42.610;23.040;2022-10-13T11:43:35;11.18;;;8.07;;
10479;SDS011;12789;42.610;23.040;2022-10-13T11:46:22;12.80;;;7.60;;
10479;SDS011;12789;42.610;23.040;2022-10-13T11:49:10;11.68;;;7.63;;
10479;SDS011;12789;42.610;23.040;2022-10-13T11:51:53;10.82;;;7.03;;
10479;SDS011;12789;42.610;23.040;2022-10-13T11:54:31;11.02;;;7.22;;
10479;SDS011;12789;42.610;23.040;2022-10-13T11:57:15;9.65;;;6.63;;
10479;SDS011;12789;42.610;23.040;2022-10-13T11:59:46;8.88;;;6.82;;
10479;SDS011;12789;42.610;23.040;2022-10-13T12:02:15;10.05;;;7.57;;
10479;SDS011;12789;42.610;23.040;2022-10-13T12:04:43;11.88;;;7.68;;
10479;SDS011;12789;42.610;23.040;2022-10-13T12:07:24;9.82;;;7.05;;
10479;SDS011;12789;42.610;23.040;2022-10-13T12:09:57;13.95;;;8.30;;
10479;SDS011;12789;42.610;23.040;2022-10-13T12:12:24;11.10;;;7.78;;
10479;SDS011;12789;42.610;23.040;2022-10-13T12:14:53;11.60;;;8.02;;
10479;SDS011;12789;42.610;23.040;2022-10-13T12:17:22;9.85;;;6.97;;
10479;SDS011;12789;42.610;23.040;2022-10-13T12:19:54;7.93;;;6.85;;
10479;SDS011;12789;42.610;23.040;2022-10-13T12:22:22;13.80;;;6.60;;
10479;SDS011;12789;42.610;23.040;2022-10-13T12:24:56;8.90;;;7.13;;
10479;SDS011;12789;42.610;23.040;2022-10-13T12:27:25;9.18;;;7.05;;
10479;SDS011;12789;42.610;23.040;2022-10-13T12:29:54;11.18;;;7.32;;
10479;SDS011;12789;42.610;23.040;2022-10-13T12:32:22;12.50;;;7.15;;
10479;SDS011;12789;42.610;23.040;2022-10-13T12:34:50;11.15;;;8.00;;
10479;SDS011;12789;42.610;23.040;2022-10-13T12:37:20;12.30;;;8.43;;
10479;SDS011;12789;42.610;23.040;2022-10-13T12:39:52;9.43;;;7.65;;
10479;SDS011;12789;42.610;23.040;2022-10-13T12:42:26;9.65;;;6.93;;
10479;SDS011;12789;42.610;23.040;2022-10-13T12:44:57;12.15;;;7.68;;
10479;SDS011;12789;42.610;23.040;2022-10-13T12:47:36;8.90;;;6.55;;
10479;SDS011;12789;42.610;23.040;2022-10-13T12:50:19;9.85;;;7.47;;
10479;SDS011;12789;42.610;23.040;2022-10-13T12:53:03;10.52;;;7.10;;
10479;SDS011;12789;42.610;23.040;2022-10-13T12:55:44;13.02;;;7.72;;
10479;SDS011;12789;42.610;23.040;2022-10-13T12:58:16;8.20;;;6.43;;
10479;SDS011;12789;42.610;23.040;2022-10-13T13:00:54;9.57;;;7.20;;
10479;SDS011;12789;42.610;23.040;2022-10-13T13:03:25;10.15;;;7.00;;
10479;SDS011;12789;42.610;23.040;2022-10-13T13:06:07;9.23;;;6.85;;
10479;SDS011;12789;42.610;23.040;2022-10-13T13:08:38;12.48;;;6.72;;
10479;SDS011;12789;42.610;23.040;2022-10-13T13:11:07;10.40;;;7.55;;
10479;SDS011;12789;42.610;23.040;2022-10-13T13:13:46;8.77;;;6.55;;
10479;SDS011;12789;42.610;23.040;2022-10-13T13:16:16;7.80;;;6.70;;
10479;SDS011;12789;42.610;23.040;2022-10-13T13:18:44;9.32;;;6.97;;
10479;SDS011;12789;42.610;23.040;2022-10-13T13:21:12;10.35;;;7.30;;
10479;SDS011;12789;42.610;23.040;2022-10-13T13:23:40;8.38;;;6.93;;
10479;SDS011;12789;42.610;23.040;2022-10-13T13:26:10;7.78;;;6.63;;
10479;SDS011;12789;42.610;23.040;2022-10-13T13:28:41;7.28;;;6.43;;
10479;SDS011;12789;42.610;23.040;2022-10-13T13:31:11;7.97;;;7.13;;
10479;SDS011;12789;42.610;23.040;2022-10-13T13:33:40;9.30;;;7.10;;
10479;SDS011;12789;42.610;23.040;2022-10-13T13:36:10;9.25;;;7.05;;
10479;SDS011;12789;42.610;23.040;2022-10-13T13:38:40;9.95;;;7.35;;
10479;SDS011;12789;42.610;23.040;2022-10-13T13:41:08;15.90;;;7.80;;
10479;SDS011;12789;42.610;23.040;2022-10-13T13:43:35;9.45;;;7.50;;
10479;SDS011;12789;42.610;23.040;2022-10-13T13:46:02;11.63;;;7.28;;
10479;SDS011;12789;42.610;23.040;2022-10-13T13:48:30;8.65;;;6.45;;
10479;SDS011;12789;42.610;23.040;2022-10-13T13:50:59;11.93;;;7.30;;
10479;SDS011;12789;42.610;23.040;2022-10-13T13:53:26;11.32;;;7.25;;
10479;SDS011;12789;42.610;23.040;2022-10-13T13:55:53;12.15;;;7.35;;
10479;SDS011;12789;42.610;23.040;2022-10-13T13:58:20;12.40;;;6.95;;
10479;SDS011;12789;42.610;23.040;2022-10-13T14:00:47;7.13;;;6.40;;
10479;SDS011;12789;42.610;23.040;2022-10-13T14:03:14;10.55;;;7.22;;
10479;SDS011;12789;42.610;23.040;2022-10-13T14:05:41;12.15;;;7.50;;
10479;SDS011;12789;42.610;23.040;2022-10-13T14:08:09;9.43;;;7.05;;
10479;SDS011;12789;42.610;23.040;2022-10-13T14:10:37;8.88;;;7.30;;
10479;SDS011;12789;42.610;23.040;2022-10-13T14:13:04;9.07;;;7.28;;
10479;SDS011;12789;42.610;23.040;2022-10-13T14:15:32;8.50;;;7.20;;
10479;SDS011;12789;42.610;23.040;2022-10-13T14:17:59;7.88;;;7.07;;
10479;SDS011;12789;42.610;23.040;2022-10-13T14:20:26;11.27;;;7.30;;
10479;SDS011;12789;42.610;23.040;2022-10-13T14:22:53;10.52;;;7.22;;
10479;SDS011;12789;42.610;23.040;2022-10-13T14:25:23;11.98;;;7.75;;
10479;SDS011;12789;42.610;23.040;2022-10-13T14:27:50;12.73;;;7.07;;
10479;SDS011;12789;42.610;23.040;2022-10-13T14:30:17;11.25;;;7.45;;
10479;SDS011;12789;42.610;23.040;2022-10-13T14:32:44;10.35;;;7.38;;
10479;SDS011;12789;42.610;23.040;2022-10-13T14:35:11;11.65;;;7.88;;
10479;SDS011;12789;42.610;23.040;2022-10-13T14:37:38;12.68;;;8.32;;
10479;SDS011;12789;42.610;23.040;2022-10-13T14:40:06;10.20;;;8.35;;
10479;SDS011;12789;42.610;23.040;2022-10-13T14:42:34;10.73;;;8.32;;
10479;SDS011;12789;42.610;23.040;2022-10-13T14:45:03;12.45;;;7.97;;